Time;durP1;ratioP1;P1;durP2;ratioP2;P2;SDS_P1;SDS_P2;PMS_P1;PMS_P2;Temp;Humidity;BMP_temperature;BMP_pressure;BME280_temperature;BME280_humidity;BME280_pressure;Samples;Min_cycle;Max_cycle;Signal;HPM_P1;HPM_P2
2022/05/09 00:02:16;;;;;;;9.23;8.83;;;;;;;11.56;41.68;93222.94;5072179;28;20240;-76
2022/05/09 00:04:42;;;;;;;9.03;8.50;;;;;;;11.48;43.08;93214.84;5073567;28;20182;-77
2022/05/09 00:07:08;;;;;;;8.90;8.47;;;;;;;11.51;44.69;93219.53;5057093;28;20238;-76
2022/05/09 00:09:34;;;;;;;8.43;8.10;;;;;;;11.28;45.94;93224.34;5049979;28;20639;-76
2022/05/09 00:12:00;;;;;;;8.30;7.87;;;;;;;11.13;45.93;93221.78;5063029;28;20727;-76
2022/05/09 00:14:26;;;;;;;8.43;8.03;;;;;;;11.08;46.55;93216.56;5070882;28;20221;-76
2022/05/09 00:16:52;;;;;;;7.93;7.63;;;;;;;10.94;47.81;93215.56;5070687;28;20233;-76
2022/05/09 00:19:20;;;;;;;8.93;8.47;;;;;;;10.89;48.16;93223.44;5070184;28;20277;-76
2022/05/09 00:21:48;;;;;;;8.73;8.33;;;;;;;10.74;49.70;93220.06;5071018;28;20281;-76
2022/05/09 00:24:15;;;;;;;8.27;7.97;;;;;;;10.84;49.69;93220.81;5069124;28;20262;-76
2022/05/09 00:26:44;;;;;;;8.40;7.90;;;;;;;10.66;50.89;93223.97;5070919;28;20310;-76
2022/05/09 00:29:11;;;;;;;9.33;8.83;;;;;;;10.46;51.14;93210.94;5066795;28;20211;-76
2022/05/09 00:31:38;;;;;;;8.60;8.20;;;;;;;10.48;51.36;93216.69;5069888;28;20237;-76
2022/05/09 00:34:04;;;;;;;9.07;8.60;;;;;;;10.37;51.58;93225.56;5070299;28;20240;-76
2022/05/09 00:36:31;;;;;;;8.27;7.97;;;;;;;10.14;51.31;93223.50;5083359;28;20253;-76
2022/05/09 00:38:58;;;;;;;7.93;7.63;;;;;;;9.98;51.07;93227.09;5070655;28;20206;-76
2022/05/09 00:41:43;;;;;;;8.03;7.73;;;;;;;9.84;53.41;93212.97;5069493;28;20233;-76
2022/05/09 00:44:18;;;;;;;9.20;8.77;;;;;;;9.93;53.38;93229.69;5069875;28;20189;-76
2022/05/09 00:46:46;;;;;;;9.73;9.33;;;;;;;9.92;54.29;93220.31;5068350;28;20255;-76
2022/05/09 00:49:29;;;;;;;8.93;8.63;;;;;;;9.71;54.90;93229.16;5068292;28;20220;-76
2022/05/09 00:52:36;;;;;;;8.37;8.07;;;;;;;9.65;54.34;93232.75;5068387;28;20233;-76
2022/05/09 00:55:11;;;;;;;8.97;8.67;;;;;;;9.43;54.06;93221.78;5048359;28;20226;-76
2022/05/09 00:57:46;;;;;;;8.80;8.30;;;;;;;9.44;54.61;93236.34;5048618;28;20237;-76
2022/05/09 01:00:18;;;;;;;9.50;9.00;;;;;;;9.48;55.93;93222.56;5054326;28;20205;-76
2022/05/09 01:02:49;;;;;;;9.40;8.83;;;;;;;9.75;54.97;93240.63;5070519;28;20245;-76
2022/05/09 01:05:15;;;;;;;8.93;8.53;;;;;;;9.63;56.09;93245.28;5070537;28;20197;-76
2022/05/09 01:07:42;;;;;;;8.93;8.57;;;;;;;9.59;56.34;93236.38;5069302;28;20241;-76
2022/05/09 01:10:14;;;;;;;8.83;8.43;;;;;;;9.49;56.75;93244.97;5068904;28;20263;-76
2022/05/09 01:12:42;;;;;;;9.10;8.70;;;;;;;9.50;56.27;93240.53;5068978;28;20230;-76
2022/05/09 01:15:13;;;;;;;8.70;8.27;;;;;;;9.40;56.74;93243.91;5069085;28;20232;-76
2022/05/09 01:17:40;;;;;;;8.87;8.47;;;;;;;9.34;57.69;93236.31;5069605;28;20232;-76
2022/05/09 01:20:08;;;;;;;8.63;8.23;;;;;;;9.36;58.82;93232.44;5070997;28;20190;-76
2022/05/09 01:22:36;;;;;;;8.50;8.17;;;;;;;9.42;58.76;93238.44;5068003;28;20237;-76
2022/05/09 01:25:06;;;;;;;8.43;8.03;;;;;;;9.30;58.48;93235.25;5069110;28;20192;-76
2022/05/09 01:27:33;;;;;;;9.17;8.77;;;;;;;9.16;59.46;93234.97;5067903;28;20289;-76
2022/05/09 01:30:21;;;;;;;9.23;8.83;;;;;;;9.15;59.80;93230.75;5070133;28;20185;-76
2022/05/09 01:32:55;;;;;;;9.57;9.13;;;;;;;9.14;60.37;93229.22;5068864;28;20245;-76
2022/05/09 01:35:28;;;;;;;8.47;8.07;;;;;;;9.11;60.37;93231.53;5068353;28;20276;-76
2022/05/09 01:38:08;;;;;;;8.77;8.40;;;;;;;8.89;60.67;93238.69;5067925;28;20272;-76
2022/05/09 01:40:33;;;;;;;8.77;8.20;;;;;;;9.00;61.46;93235.13;5070103;28;20196;-76
2022/05/09 01:42:59;;;;;;;9.50;9.00;;;;;;;9.03;62.00;93240.63;5066197;28;20240;-76
2022/05/09 01:45:24;;;;;;;8.50;8.20;;;;;;;8.86;60.19;93223.59;5069349;28;20264;-76
2022/05/09 01:50:34;;;;;;;8.17;7.67;;;;;;;8.88;59.08;93237.16;5068431;28;20224;-76
2022/05/09 01:52:59;;;;;;;10.03;9.50;;;;;;;8.81;59.78;93231.41;5069416;28;20225;-76
2022/05/09 01:55:25;;;;;;;8.40;8.10;;;;;;;8.66;59.45;93216.47;5071383;28;20289;-76
2022/05/09 01:57:50;;;;;;;8.63;8.23;;;;;;;8.63;60.38;93244.81;5067452;28;20291;-76
2022/05/09 02:00:17;;;;;;;9.33;8.90;;;;;;;8.59;60.17;93228.13;5069305;28;20209;-76
2022/05/09 02:02:43;;;;;;;8.57;8.17;;;;;;;8.59;59.85;93238.53;5068726;28;20233;-76
2022/05/09 02:05:09;;;;;;;8.43;8.03;;;;;;;8.51;60.28;93246.81;5069357;28;20228;-76
2022/05/09 02:07:35;;;;;;;8.67;8.37;;;;;;;8.52;60.59;93227.56;5066549;28;20284;-76
2022/05/09 02:10:01;;;;;;;7.93;7.63;;;;;;;8.67;60.34;93248.50;5066469;28;21664;-76
2022/05/09 02:12:27;;;;;;;8.87;8.47;;;;;;;8.42;60.95;93224.91;5067412;28;20251;-76
2022/05/09 02:14:53;;;;;;;8.37;7.97;;;;;;;8.49;60.72;93231.44;5068543;28;20197;-76
2022/05/09 02:17:18;;;;;;;9.50;9.00;;;;;;;8.41;60.82;93224.09;5068052;28;20311;-76
2022/05/09 02:19:45;;;;;;;8.60;8.30;;;;;;;8.43;60.74;93229.84;5069033;28;20223;-76
2022/05/09 02:22:11;;;;;;;9.17;8.67;;;;;;;8.49;61.00;93249.66;5068576;28;20232;-76
2022/05/09 02:24:39;;;;;;;9.00;8.50;;;;;;;8.48;61.35;93253.31;5066922;28;20190;-76
2022/05/09 02:27:05;;;;;;;8.17;7.87;;;;;;;8.26;62.12;93254.41;5066820;28;20253;-77
2022/05/09 02:29:31;;;;;;;8.57;8.17;;;;;;;8.22;61.86;93254.09;5068059;28;20197;-75
2022/05/09 02:31:57;;;;;;;9.47;9.10;;;;;;;8.15;62.53;93256.91;5067841;28;20245;-75
2022/05/09 02:34:23;;;;;;;8.27;7.97;;;;;;;8.08;61.97;93243.34;5068344;28;20223;-75
2022/05/09 02:39:48;;;;;;;8.87;8.47;;;;;;;8.06;62.10;93242.78;5131367;27;20588;-75
2022/05/09 02:42:14;;;;;;;9.23;8.83;;;;;;;8.09;62.30;93244.88;5077407;28;20298;-76
2022/05/09 02:44:39;;;;;;;9.57;9.07;;;;;;;8.16;62.42;93249.88;5064195;28;20253;-76
2022/05/09 02:47:05;;;;;;;9.43;9.03;;;;;;;8.17;62.56;93252.25;5076945;28;20228;-76
2022/05/09 02:49:31;;;;;;;10.63;9.80;;;;;;;8.14;63.15;93257.16;5083878;28;20209;-76
2022/05/09 02:51:56;;;;;;;9.30;8.63;;;;;;;8.09;63.17;93255.28;5084453;28;20226;-76
2022/05/09 02:54:22;;;;;;;9.37;9.03;;;;;;;8.20;62.69;93246.53;5084751;28;20192;-76
2022/05/09 02:56:47;;;;;;;9.20;8.70;;;;;;;8.22;63.11;93254.09;5073341;28;20233;-75
2022/05/09 02:59:13;;;;;;;9.20;8.80;;;;;;;8.08;63.55;93258.13;5064004;28;20237;-76
2022/05/09 03:01:39;;;;;;;9.43;9.03;;;;;;;7.97;64.66;93246.88;5063820;28;20232;-76
2022/05/09 03:06:48;;;;;;;9.13;8.73;;;;;;;8.00;64.54;93245.59;5075472;28;20924;-76
2022/05/09 03:09:14;;;;;;;9.57;8.97;;;;;;;8.18;63.94;93263.44;5084929;28;20208;-76
2022/05/09 03:11:39;;;;;;;9.23;8.73;;;;;;;8.18;63.90;93268.63;5084850;28;20224;-76
2022/05/09 03:14:05;;;;;;;9.33;8.83;;;;;;;8.06;64.01;93276.59;5085154;28;20284;-76
2022/05/09 03:16:31;;;;;;;8.97;8.63;;;;;;;8.23;64.28;93276.53;5084799;28;20235;-76
2022/05/09 03:18:56;;;;;;;8.67;8.27;;;;;;;8.19;64.83;93281.41;5084872;28;20213;-76
2022/05/09 03:21:22;;;;;;;9.53;9.13;;;;;;;7.70;65.67;93214.13;5084506;28;20231;-76
2022/05/09 03:23:48;;;;;;;9.00;8.60;;;;;;;8.06;64.97;93268.78;5083656;28;20193;-77
2022/05/09 03:26:13;;;;;;;9.00;8.40;;;;;;;8.36;64.63;93293.53;5083768;28;20232;-76
2022/05/09 03:28:39;;;;;;;9.20;8.70;;;;;;;8.28;64.78;93293.97;5083578;28;20189;-77
2022/05/09 03:31:04;;;;;;;9.43;9.03;;;;;;;8.42;64.63;93295.91;5083074;28;20749;-75
2022/05/09 03:33:30;;;;;;;10.33;9.70;;;;;;;8.53;64.89;93296.78;5083474;28;20679;-76
2022/05/09 03:35:59;;;;;;;9.20;8.80;;;;;;;8.66;64.58;93294.53;5084935;28;20243;-75
2022/05/09 03:38:25;;;;;;;10.47;9.83;;;;;;;8.64;64.66;93288.78;5085275;28;21230;-76
2022/05/09 03:40:51;;;;;;;9.83;9.27;;;;;;;8.64;64.59;93280.22;5083271;28;20200;-76
2022/05/09 03:43:16;;;;;;;10.03;9.33;;;;;;;8.63;65.03;93276.03;5084883;28;20185;-77
2022/05/09 03:45:44;;;;;;;9.43;9.03;;;;;;;8.69;64.49;93282.84;5084776;28;20200;-76
2022/05/09 03:48:10;;;;;;;10.43;9.40;;;;;;;8.50;63.75;93273.88;5084840;28;20193;-74
2022/05/09 03:50:35;;;;;;;7.73;7.43;;;;;;;8.60;64.44;93289.53;5074330;28;20181;-77
2022/05/09 03:53:01;;;;;;;9.90;9.40;;;;;;;8.83;63.48;93286.56;5071339;28;20209;-77
2022/05/09 03:57:51;;;;;;;10.90;10.30;;;;;;;9.39;62.31;93291.06;5083882;27;20609;-78
2022/05/09 04:00:19;;;;;;;10.10;9.57;;;;;;;9.77;61.23;93282.88;5065466;28;20189;-75
2022/05/09 04:02:45;;;;;;;8.90;8.53;;;;;;;10.50;58.64;93287.72;5046817;28;20263;-76
2022/05/09 04:05:15;;;;;;;10.57;9.97;;;;;;;10.43;58.89;93287.16;5046707;28;20188;-75
2022/05/09 04:07:43;;;;;;;9.40;9.00;;;;;;;10.11;60.40;93283.22;5046160;28;20230;-76
2022/05/09 04:10:09;;;;;;;10.17;9.67;;;;;;;9.78;61.01;93250.53;5046040;28;20194;-76
2022/05/09 04:12:35;;;;;;;9.90;9.23;;;;;;;10.08;61.50;93286.34;5045345;28;20225;-75
2022/05/09 04:17:45;;;;;;;9.00;8.13;;;;;;;10.09;62.26;93285.28;5063044;28;20288;-76
2022/05/09 04:20:11;;;;;;;9.90;9.40;;;;;;;10.21;62.16;93288.47;5064381;28;20182;-71
2022/05/09 04:22:37;;;;;;;9.83;9.13;;;;;;;10.10;63.08;93279.81;5064574;28;20217;-78
2022/05/09 04:25:03;;;;;;;10.33;9.73;;;;;;;10.39;62.61;93282.72;5047748;28;20185;-73
2022/05/09 04:27:29;;;;;;;9.33;8.70;;;;;;;10.56;59.42;93255.34;5064830;28;20213;-74
2022/05/09 04:29:56;;;;;;;9.13;8.67;;;;;;;11.01;57.13;93293.66;5063245;28;20200;-71
2022/05/09 04:32:21;;;;;;;10.93;9.43;;;;;;;11.04;56.21;93283.47;5062410;28;21096;-74
2022/05/09 04:34:46;;;;;;;10.67;10.07;;;;;;;11.36;55.78;93291.75;5062907;28;20185;-74
2022/05/09 04:37:12;;;;;;;10.33;9.67;;;;;;;11.64;53.41;93293.03;5065650;28;20253;-77
2022/05/09 04:39:37;;;;;;;10.37;9.57;;;;;;;11.71;53.53;93296.13;5063835;28;20190;-77
2022/05/09 04:42:03;;;;;;;9.83;9.33;;;;;;;11.89;53.86;93308.56;5064428;28;20255;-80
2022/05/09 04:44:29;;;;;;;10.97;10.03;;;;;;;11.82;54.55;93309.94;5065203;28;20208;-79
2022/05/09 04:46:54;;;;;;;10.53;9.70;;;;;;;11.85;54.92;93309.38;5064395;28;20241;-79
2022/05/09 04:49:20;;;;;;;11.33;10.43;;;;;;;11.61;55.83;93293.50;5065151;28;20184;-79
2022/05/09 04:51:45;;;;;;;10.90;10.20;;;;;;;11.72;55.79;93320.44;5065706;28;20289;-79
2022/05/09 04:54:11;;;;;;;10.90;10.10;;;;;;;11.65;57.52;93309.47;5065329;28;20186;-80
2022/05/09 04:56:36;;;;;;;11.77;10.67;;;;;;;11.91;56.07;93313.53;5064455;28;20232;-80
2022/05/09 04:59:02;;;;;;;11.00;10.10;;;;;;;12.02;56.42;93310.63;5064782;28;20277;-80
2022/05/09 05:01:28;;;;;;;11.53;10.70;;;;;;;12.03;55.83;93311.41;5064083;28;20241;-79
2022/05/09 05:03:54;;;;;;;10.30;9.60;;;;;;;12.17;55.56;93317.63;5063886;28;20190;-79
2022/05/09 05:06:19;;;;;;;11.20;10.33;;;;;;;12.37;54.64;93293.94;5064459;28;20255;-81
2022/05/09 05:08:45;;;;;;;11.00;10.10;;;;;;;13.50;52.34;93321.28;5052122;28;20206;-80
2022/05/09 05:11:10;;;;;;;11.60;10.57;;;;;;;13.75;51.55;93323.63;5050227;28;20234;-78
2022/05/09 05:13:35;;;;;;;10.20;9.60;;;;;;;13.74;50.88;93321.28;5050942;28;20254;-79
2022/05/09 05:16:01;;;;;;;11.70;10.90;;;;;;;14.34;50.29;93323.97;5050538;28;20280;-80
2022/05/09 05:18:28;;;;;;;10.90;10.03;;;;;;;15.09;47.92;93331.78;5050961;28;20208;-80
2022/05/09 05:20:54;;;;;;;11.87;10.97;;;;;;;14.05;50.22;93319.88;5050244;28;20217;-80
2022/05/09 05:23:20;;;;;;;11.47;10.47;;;;;;;14.39;49.40;93326.53;5051591;28;20195;-80
2022/05/09 05:25:46;;;;;;;11.93;10.97;;;;;;;15.73;46.41;93329.09;5050785;28;20250;-80
2022/05/09 05:28:15;;;;;;;11.03;10.10;;;;;;;16.16;44.39;93326.94;5049727;28;20240;-80
2022/05/09 05:30:41;;;;;;;12.33;9.97;;;;;;;15.84;45.17;93327.84;5049761;28;20210;-80
2022/05/09 05:33:07;;;;;;;11.43;10.50;;;;;;;14.73;47.61;93318.41;5050570;28;20198;-80
2022/05/09 05:35:33;;;;;;;9.40;8.80;;;;;;;16.69;44.44;93327.94;5049433;28;20209;-80
2022/05/09 05:37:58;;;;;;;11.03;10.23;;;;;;;19.83;37.41;93329.88;5051813;28;20232;-80
2022/05/09 05:40:24;;;;;;;11.30;10.33;;;;;;;22.59;32.21;93337.56;5050696;28;20206;-80
2022/05/09 05:42:52;;;;;;;10.63;9.83;;;;;;;24.56;28.80;93326.91;5048069;28;20884;-80
2022/05/09 05:45:21;;;;;;;10.15;9.35;;;;;;;27.49;24.85;93332.53;5050044;28;20187;-81
2022/05/09 05:47:47;;;;;;;8.90;8.20;;;;;;;28.24;24.10;93342.94;5050091;28;20266;-80
2022/05/09 05:50:14;;;;;;;10.40;9.43;;;;;;;30.16;21.17;93360.59;5051480;28;20188;-78
2022/05/09 05:52:40;;;;;;;10.23;9.30;;;;;;;29.12;22.97;93362.47;5049716;28;20289;-79
2022/05/09 05:55:06;;;;;;;8.95;8.35;;;;;;;30.57;21.19;93369.94;5050024;28;20170;-79
2022/05/09 05:57:35;;;;;;;9.93;8.98;;;;;;;31.04;20.06;93347.97;5047778;28;20289;-78
2022/05/09 06:00:08;;;;;;;9.88;9.13;;;;;;;27.47;23.33;93363.56;5048408;28;20224;-80
2022/05/09 06:02:37;;;;;;;9.77;8.98;;;;;;;29.56;21.63;93353.09;5048809;28;20218;-80
2022/05/09 06:05:04;;;;;;;8.70;8.10;;;;;;;25.88;25.85;93362.16;5050882;28;20194;-80
2022/05/09 06:07:29;;;;;;;20.38;8.90;;;;;;;27.95;23.68;93357.22;5050705;28;20234;-80
2022/05/09 06:09:54;;;;;;;8.52;8.00;;;;;;;29.76;21.79;93368.97;5050463;28;20203;-79
2022/05/09 06:12:22;;;;;;;9.90;9.07;;;;;;;29.02;22.08;93357.75;5050527;28;20249;-80
2022/05/09 06:17:38;;;;;;;9.48;8.57;;;;;;;30.61;20.32;93374.19;5050701;28;20239;-79
2022/05/09 06:20:05;;;;;;;9.70;8.88;;;;;;;30.78;20.30;93373.44;5049147;28;20193;-80
2022/05/09 06:22:31;;;;;;;9.15;8.27;;;;;;;26.60;24.38;93340.44;5049239;28;20312;-77
2022/05/09 06:25:00;;;;;;;11.20;10.02;;;;;;;27.58;23.97;93362.53;5049562;28;20305;-79
2022/05/09 06:27:26;;;;;;;9.30;8.63;;;;;;;26.33;25.05;93348.81;5048808;28;20228;-78
2022/05/09 06:29:52;;;;;;;10.13;9.23;;;;;;;23.64;28.96;93350.50;5049979;28;20194;-75
2022/05/09 06:32:19;;;;;;;11.27;10.27;;;;;;;18.28;38.17;93342.66;5048693;28;20991;-74
2022/05/09 06:34:45;;;;;;;9.23;8.38;;;;;;;19.40;37.63;93350.41;5050777;28;20226;-73
2022/05/09 06:37:12;;;;;;;9.65;8.98;;;;;;;16.83;42.44;93345.28;5051840;28;20238;-73
2022/05/09 06:39:38;;;;;;;9.75;8.98;;;;;;;17.13;43.14;93338.50;5051547;28;20276;-73
2022/05/09 06:42:04;;;;;;;19.10;10.13;;;;;;;17.59;41.42;93339.75;5049593;28;20230;-72
2022/05/09 06:44:29;;;;;;;11.70;10.63;;;;;;;17.48;40.88;93324.47;5050965;28;20267;-76
2022/05/09 06:46:55;;;;;;;13.63;10.53;;;;;;;16.22;45.50;93334.44;5050460;28;20233;-73
2022/05/09 06:49:22;;;;;;;13.10;12.10;;;;;;;16.58;43.70;93342.41;5047351;28;20198;-72
2022/05/09 06:51:48;;;;;;;12.90;11.70;;;;;;;16.68;44.37;93343.00;5047017;28;20233;-72
2022/05/09 06:54:18;;;;;;;11.87;10.80;;;;;;;16.74;43.48;93339.16;5049362;28;20233;-72
2022/05/09 06:56:44;;;;;;;10.83;10.13;;;;;;;16.91;44.39;93349.06;5048961;28;20234;-73
2022/05/09 06:59:09;;;;;;;12.10;11.20;;;;;;;17.00;44.26;93348.03;5049180;28;20182;-73
2022/05/09 07:01:35;;;;;;;12.33;9.50;;;;;;;16.72;44.18;93343.94;5049019;28;20304;-73
2022/05/09 07:04:00;;;;;;;10.70;10.00;;;;;;;17.17;43.55;93350.81;5049541;28;20194;-73
2022/05/09 07:06:26;;;;;;;10.70;9.80;;;;;;;17.25;43.37;93339.53;5049276;28;20298;-73
2022/05/09 07:08:51;;;;;;;10.53;9.67;;;;;;;17.33;42.86;93344.09;5050306;28;20261;-74
2022/05/09 07:11:17;;;;;;;12.03;11.07;;;;;;;17.46;42.82;93348.53;5047595;28;20305;-72
2022/05/09 07:13:42;;;;;;;10.10;9.50;;;;;;;16.99;45.07;93350.97;5047808;28;20265;-71
2022/05/09 07:16:08;;;;;;;10.90;10.20;;;;;;;16.77;45.30;93350.97;5048641;28;20248;-72
2022/05/09 07:18:34;;;;;;;10.97;10.07;;;;;;;17.38;43.13;93346.59;5048068;28;20194;-72
2022/05/09 07:21:00;;;;;;;9.87;9.30;;;;;;;17.33;44.07;93338.81;5047975;28;20226;-72
2022/05/09 07:23:26;;;;;;;9.83;9.23;;;;;;;17.36;43.28;93348.75;5048822;28;20192;-72
2022/05/09 07:25:54;;;;;;;10.70;10.00;;;;;;;17.29;43.12;93337.84;5048277;28;20198;-72
2022/05/09 07:28:21;;;;;;;10.07;9.47;;;;;;;17.29;44.02;93355.56;5048573;28;20193;-72
2022/05/09 07:30:47;;;;;;;10.23;9.50;;;;;;;17.32;45.06;93352.31;5048781;28;20194;-73
2022/05/09 07:33:18;;;;;;;11.77;10.87;;;;;;;17.26;45.19;93332.41;5048274;28;20197;-72
2022/05/09 07:35:45;;;;;;;9.90;9.23;;;;;;;17.50;43.48;93352.13;5048438;28;20225;-73
2022/05/09 07:38:11;;;;;;;10.30;9.43;;;;;;;17.75;45.00;93347.28;5049364;28;20221;-73
2022/05/09 07:40:38;;;;;;;10.57;9.97;;;;;;;17.72;44.18;93342.59;5046849;28;20338;-73
2022/05/09 07:43:09;;;;;;;9.93;9.23;;;;;;;17.94;44.24;93350.47;5048393;28;20198;-73
2022/05/09 07:45:35;;;;;;;9.63;9.03;;;;;;;18.43;43.55;93352.81;5048816;28;20186;-72
2022/05/09 07:48:00;;;;;;;10.17;9.37;;;;;;;18.36;43.01;93355.13;5045872;28;20302;-72
2022/05/09 07:50:26;;;;;;;8.47;7.90;;;;;;;18.19;39.49;93350.56;5047804;28;20178;-72
2022/05/09 07:52:52;;;;;;;9.73;9.13;;;;;;;17.65;42.68;93355.47;5049313;28;20218;-72
2022/05/09 07:55:17;;;;;;;9.73;9.17;;;;;;;18.23;39.75;93351.50;5047343;28;20217;-72
2022/05/09 07:57:43;;;;;;;9.17;8.53;;;;;;;18.15;40.24;93354.91;5048379;28;20264;-71
2022/05/09 08:00:10;;;;;;;10.30;9.50;;;;;;;18.03;37.78;93346.78;5049904;28;20210;-72
2022/05/09 08:02:41;;;;;;;9.57;9.07;;;;;;;18.06;38.53;93354.09;5047173;28;20237;-73
2022/05/09 08:05:10;;;;;;;9.20;8.60;;;;;;;18.24;39.08;93357.59;5048056;28;20186;-72
2022/05/09 08:07:39;;;;;;;8.63;8.20;;;;;;;18.34;38.30;93359.91;5048760;28;20226;-74
2022/05/09 08:10:06;;;;;;;9.53;8.90;;;;;;;18.46;37.96;93363.56;5048886;28;20240;-74
2022/05/09 08:12:32;;;;;;;8.80;8.30;;;;;;;18.40;38.02;93343.66;5048049;28;20244;-72
2022/05/09 08:14:57;;;;;;;9.00;8.20;;;;;;;18.67;37.51;93356.63;5048469;28;20289;-74
2022/05/09 08:17:23;;;;;;;9.47;8.87;;;;;;;18.53;38.02;93355.19;5047495;28;20237;-77
2022/05/09 08:19:52;;;;;;;9.50;8.80;;;;;;;18.17;41.30;93359.88;5047085;28;20201;-77
2022/05/09 08:22:22;;;;;;;9.37;8.67;;;;;;;18.24;39.12;93362.88;5048708;28;20250;-77
2022/05/09 08:24:47;;;;;;;9.70;9.20;;;;;;;18.84;38.20;93355.84;5049693;28;20703;-77
2022/05/09 08:27:13;;;;;;;9.77;9.07;;;;;;;19.06;37.24;93363.63;5047321;28;20229;-76
2022/05/09 08:29:38;;;;;;;9.37;8.77;;;;;;;18.91;36.61;93350.88;5048285;28;20202;-77
2022/05/09 08:32:05;;;;;;;9.47;8.83;;;;;;;18.80;36.28;93362.84;5048657;28;20290;-77
2022/05/09 08:34:30;;;;;;;10.40;9.67;;;;;;;17.93;38.88;93354.22;5047333;28;20201;-79
2022/05/09 08:36:56;;;;;;;9.40;8.80;;;;;;;18.57;37.35;93356.09;5047136;28;20210;-78
2022/05/09 08:39:23;;;;;;;9.57;8.97;;;;;;;18.66;37.00;93362.22;5048363;28;20212;-78
2022/05/09 08:41:55;;;;;;;10.83;8.67;;;;;;;18.43;38.37;93364.19;5046401;28;20225;-77
2022/05/09 08:44:41;;;;;;;9.40;8.87;;;;;;;18.57;39.27;93358.75;5050780;28;20202;-78
2022/05/09 08:47:27;;;;;;;9.83;9.20;;;;;;;18.89;36.97;93356.47;5051700;28;20229;-78
2022/05/09 08:50:09;;;;;;;10.27;9.33;;;;;;;19.15;36.92;93359.13;5050490;28;20194;-78
2022/05/09 08:52:34;;;;;;;8.87;8.07;;;;;;;19.18;35.60;93358.50;5051299;28;20231;-77
2022/05/09 08:55:01;;;;;;;9.00;8.50;;;;;;;18.86;38.25;93359.72;5051433;28;20281;-76
2022/05/09 08:57:37;;;;;;;9.87;9.27;;;;;;;19.32;36.65;93359.13;5050796;28;20238;-75
2022/05/09 09:00:18;;;;;;;8.93;8.43;;;;;;;19.00;36.51;93356.94;5051289;28;20194;-75
2022/05/09 09:02:47;;;;;;;10.47;9.70;;;;;;;19.16;34.98;93355.38;5051259;28;20230;-77
2022/05/09 09:05:20;;;;;;;9.80;8.97;;;;;;;19.26;33.43;93354.28;5051880;28;20193;-88
2022/05/09 09:08:03;;;;;;;9.30;8.77;;;;;;;19.26;35.15;93357.72;5053088;28;20238;-80
2022/05/09 09:10:45;;;;;;;10.43;9.43;;;;;;;18.83;35.01;93355.06;5051246;28;21205;-81
2022/05/09 09:13:29;;;;;;;9.70;9.17;;;;;;;19.28;34.21;93363.50;5030073;28;20208;-84
2022/05/09 09:15:55;;;;;;;9.00;8.23;;;;;;;18.82;34.21;93350.06;5030900;28;20274;-87
2022/05/09 09:18:36;;;;;;;10.37;9.47;;;;;;;18.58;35.88;93347.91;5031391;28;20180;-88
2022/05/09 09:21:11;;;;;;;8.43;7.83;;;;;;;19.42;32.23;93342.94;5034188;28;20315;-84
2022/05/09 09:23:58;;;;;;;9.73;9.13;;;;;;;19.37;31.56;93353.69;5065879;28;20198;-85
2022/05/09 09:27:02;;;;;;;8.50;8.00;;;;;;;19.37;30.50;93348.38;5050726;28;20235;-82
2022/05/09 09:29:40;;;;;;;7.97;7.53;;;;;;;19.34;31.22;93342.94;5050808;28;20195;-85
2022/05/09 09:32:12;;;;;;;9.60;8.80;;;;;;;19.60;29.22;93341.78;5051129;28;20227;-83
2022/05/09 09:35:03;;;;;;;8.20;7.80;;;;;;;19.67;27.36;93325.41;5051056;28;20219;-81
2022/05/09 09:37:33;;;;;;;8.00;7.60;;;;;;;19.89;27.54;93344.50;5050722;28;20227;-84
2022/05/09 09:39:58;;;;;;;8.93;8.23;;;;;;;19.91;27.14;93329.06;5051489;28;20191;-84
2022/05/09 09:42:24;;;;;;;8.63;8.13;;;;;;;20.12;26.32;93340.53;5050508;28;20291;-82
2022/05/09 09:44:53;;;;;;;7.80;7.20;;;;;;;20.19;24.97;93337.38;5050488;28;20199;-71
2022/05/09 09:47:18;;;;;;;9.17;8.37;;;;;;;20.23;25.08;93344.38;5064746;28;20231;-79
2022/05/09 09:49:44;;;;;;;8.03;7.63;;;;;;;20.02;23.12;93332.91;5051116;28;20211;-74
2022/05/09 09:52:20;;;;;;;8.90;8.40;;;;;;;20.16;24.30;93336.16;5049998;28;20237;-76
2022/05/09 09:54:57;;;;;;;9.83;7.73;;;;;;;20.03;22.27;93334.47;5050302;28;20195;-76
2022/05/09 09:57:29;;;;;;;8.70;8.30;;;;;;;20.00;22.48;93340.41;5048387;28;20226;-77
2022/05/09 09:59:57;;;;;;;7.20;6.90;;;;;;;20.15;21.18;93337.25;5050428;28;20187;-81
2022/05/09 10:02:27;;;;;;;8.57;8.07;;;;;;;19.93;24.23;93318.13;5049275;28;20358;-86
2022/05/09 10:04:57;;;;;;;8.53;7.50;;;;;;;19.87;23.63;93308.81;5053441;28;20195;-84
2022/05/09 10:07:32;;;;;;;7.40;7.10;;;;;;;19.87;20.56;93322.84;5050754;28;20270;-84
2022/05/09 10:10:12;;;;;;;7.97;7.40;;;;;;;19.80;23.89;93297.94;5050213;28;20310;-83
2022/05/09 10:12:44;;;;;;;8.13;7.73;;;;;;;20.12;25.38;93337.88;5050285;28;20232;-82
2022/05/09 10:15:34;;;;;;;8.53;7.83;;;;;;;19.97;25.74;93325.13;5050600;28;20197;-84
2022/05/09 10:18:17;;;;;;;8.50;8.00;;;;;;;19.72;24.28;93333.94;5050025;28;20225;-85
2022/05/09 10:20:43;;;;;;;7.63;7.10;;;;;;;19.93;25.28;93331.38;5051350;28;20192;-82
2022/05/09 10:26:19;;;;;;;8.87;8.20;;;;;;;20.10;24.89;93326.81;5049497;28;20251;-82
2022/05/09 10:28:47;;;;;;;8.40;7.90;;;;;;;20.16;25.38;93332.72;5051933;28;20204;-82
2022/05/09 10:31:17;;;;;;;9.10;8.47;;;;;;;19.61;27.20;93321.38;5064083;28;20225;-84
2022/05/09 10:33:55;;;;;;;8.07;7.67;;;;;;;19.56;27.80;93318.91;5049056;28;20182;-83
2022/05/09 10:36:31;;;;;;;8.50;7.80;;;;;;;20.11;26.98;93299.19;5048146;28;20721;-82
2022/05/09 10:39:09;;;;;;;7.43;6.93;;;;;;;20.16;26.85;93316.81;5051112;28;20193;-82
2022/05/09 10:41:43;;;;;;;7.93;7.43;;;;;;;20.18;25.77;93323.38;5050119;28;20231;-82
2022/05/09 10:44:32;;;;;;;8.30;7.70;;;;;;;20.33;27.48;93330.75;5048675;28;20242;-81
2022/05/09 10:47:07;;;;;;;7.70;7.20;;;;;;;20.52;27.82;93328.47;5050550;28;20311;-81
2022/05/09 10:49:43;;;;;;;8.43;7.93;;;;;;;20.43;28.25;93327.75;5049861;28;20196;-82
2022/05/09 10:52:41;;;;;;;8.53;8.13;;;;;;;20.36;25.31;93324.03;5048365;28;20235;-79
2022/05/09 10:55:38;;;;;;;8.37;7.87;;;;;;;20.23;25.08;93312.56;5049369;28;20213;-84
2022/05/09 10:58:10;;;;;;;8.17;7.77;;;;;;;20.28;26.19;93312.38;5063255;28;20224;-81
2022/05/09 11:00:44;;;;;;;7.40;7.00;;;;;;;20.41;26.32;93324.63;5048761;28;20207;-80
2022/05/09 11:03:41;;;;;;;8.20;7.70;;;;;;;20.53;25.43;93316.75;5048539;28;20220;-81
2022/05/09 11:06:27;;;;;;;8.50;8.10;;;;;;;20.80;23.16;93315.47;5039137;28;20235;-81
2022/05/09 11:08:58;;;;;;;7.33;7.00;;;;;;;20.74;24.67;93311.47;5030513;28;20209;-79
2022/05/09 11:12:01;;;;;;;7.73;7.33;;;;;;;20.72;24.94;93302.28;5030346;28;20231;-79
2022/05/09 11:14:34;;;;;;;7.82;7.43;;;;;;;21.14;23.33;93314.44;5028434;28;20196;-80
2022/05/09 11:17:31;;;;;;;8.07;7.67;;;;;;;21.13;23.57;93311.03;5040468;28;20221;-80
2022/05/09 11:20:05;;;;;;;7.47;7.07;;;;;;;21.06;23.95;93310.00;5049136;28;20198;-82
2022/05/09 11:22:40;;;;;;;8.50;8.10;;;;;;;21.12;24.25;93306.03;5048542;28;20239;-80
2022/05/09 11:25:27;;;;;;;7.70;7.30;;;;;;;21.07;24.59;93303.59;5048009;28;20200;-81
2022/05/09 11:28:03;;;;;;;8.70;8.20;;;;;;;20.98;25.07;93300.22;5048827;28;20228;-80
2022/05/09 11:30:31;;;;;;;8.55;8.07;;;;;;;21.17;24.84;93303.19;5049831;28;20263;-81
2022/05/09 11:33:12;;;;;;;8.63;8.13;;;;;;;21.16;24.93;93293.66;5049230;28;20298;-82
2022/05/09 11:49:04;;;;;;;7.37;6.97;;;;;;;21.20;19.82;93286.59;5047146;28;20232;-81
2022/05/09 11:51:39;;;;;;;7.50;7.20;;;;;;;21.19;20.46;93282.38;5063079;28;20263;-80
2022/05/09 11:54:08;;;;;;;8.33;7.87;;;;;;;21.04;20.69;93283.00;5048246;28;20177;-81
2022/05/09 11:56:36;;;;;;;8.02;7.63;;;;;;;21.06;22.24;93270.19;5048127;28;20267;-80
2022/05/09 11:59:04;;;;;;;7.50;7.10;;;;;;;21.18;23.09;93276.31;5048508;28;20184;-80
2022/05/09 12:02:03;;;;;;;8.02;7.63;;;;;;;21.27;24.19;93281.53;5048838;28;20225;-79
2022/05/09 12:04:39;;;;;;;7.32;6.93;;;;;;;21.27;23.56;93270.91;5044971;28;20287;-75
2022/05/09 12:07:23;;;;;;;10.57;8.70;;;;;;;21.55;22.55;93274.50;5047233;28;20222;-78
2022/05/09 12:09:58;;;;;;;7.43;7.03;;;;;;;21.15;21.84;93270.88;5048869;28;20204;-78
2022/05/09 12:12:41;;;;;;;8.38;7.80;;;;;;;20.88;21.89;93280.13;5049412;28;20232;-80
2022/05/09 12:15:09;;;;;;;8.10;7.67;;;;;;;20.89;22.11;93267.63;5048117;28;20219;-79
2022/05/09 12:17:39;;;;;;;8.17;7.77;;;;;;;20.73;21.79;93251.53;5050497;28;20240;-80